EIKN

Ireland West Knock Airport

Charleston, Ireland
METAR EIKN 171800Z 30003KT 9999 FEW016 08/06 Q1026 NOSIG
Observed Flight Rules
Oct-17 @ 18:00 UTC (20 minutes ago) Visual Flight Rules
Wind Visibility Clouds
300° at 3 knots 10,000+ meters
  • Few at 1,600' AGL
Temperatures Readings
Current 8°C / 46°F
Dewpoint 6°C / 43°F
Humidity 87%
Altimeter 30.3" Hg
Pressure 1026 hPa
Elevation 64
METAR EIKN 171800Z 30003KT 9999 FEW016 08/06 Q1026 NOSIG
Observed Flight Rules
Oct-17 @ 18:00 UTC
(20 minutes ago)
VFR
Wind Visibility
300° at 3 knots 10,000+ meters
Clouds
  • Few at 1,600' AGL
Temperature Dewpoint
8°C / 46°F 6°C / 43°F
Humidity Altimeter Pressure
87% 30.3" Hg 1026 hPa